sensor_id;sensor_type;location;lat;lon;timestamp;pressure;altitude;pressure_sealevel;temperature;humidity
63708;BME280;67643;-34.198;22.084;2023-06-14T00:01:40;98796.26;;;17.62;35.02
63708;BME280;67643;-34.198;22.084;2023-06-14T00:04:08;98794.45;;;17.57;34.62
63708;BME280;67643;-34.198;22.084;2023-06-14T00:06:37;98789.88;;;17.68;34.98
63708;BME280;67643;-34.198;22.084;2023-06-14T00:09:06;98789.47;;;17.94;34.74
63708;BME280;67643;-34.198;22.084;2023-06-14T00:11:34;98793.78;;;17.88;34.61
63708;BME280;67643;-34.198;22.084;2023-06-14T00:14:02;98799.48;;;18.17;34.40
63708;BME280;67643;-34.198;22.084;2023-06-14T00:16:31;98806.54;;;17.88;34.50
63708;BME280;67643;-34.198;22.084;2023-06-14T00:18:59;98804.18;;;18.01;34.96
63708;BME280;67643;-34.198;22.084;2023-06-14T00:21:28;98792.91;;;18.13;34.31
63708;BME280;67643;-34.198;22.084;2023-06-14T00:23:58;98791.31;;;17.75;34.40
63708;BME280;67643;-34.198;22.084;2023-06-14T00:26:27;98774.76;;;18.11;34.00
63708;BME280;67643;-34.198;22.084;2023-06-14T00:28:55;98777.78;;;17.54;34.45
63708;BME280;67643;-34.198;22.084;2023-06-14T00:31:24;98781.59;;;17.95;34.27
63708;BME280;67643;-34.198;22.084;2023-06-14T00:33:53;98787.42;;;17.79;34.43
63708;BME280;67643;-34.198;22.084;2023-06-14T00:36:21;98795.40;;;17.87;34.12
63708;BME280;67643;-34.198;22.084;2023-06-14T00:38:50;98798.52;;;17.76;34.24
63708;BME280;67643;-34.198;22.084;2023-06-14T00:41:18;98796.70;;;17.91;34.26
63708;BME280;67643;-34.198;22.084;2023-06-14T00:43:47;98789.61;;;17.94;34.04
63708;BME280;67643;-34.198;22.084;2023-06-14T00:46:15;98797.48;;;17.94;34.33
63708;BME280;67643;-34.198;22.084;2023-06-14T00:48:44;98792.75;;;17.67;34.05
63708;BME280;67643;-34.198;22.084;2023-06-14T00:51:13;98790.35;;;18.25;34.20
63708;BME280;67643;-34.198;22.084;2023-06-14T00:53:42;98790.15;;;18.33;33.89
63708;BME280;67643;-34.198;22.084;2023-06-14T00:56:12;98774.82;;;18.07;34.47
63708;BME280;67643;-34.198;22.084;2023-06-14T00:58:41;98787.13;;;18.26;34.13
63708;BME280;67643;-34.198;22.084;2023-06-14T01:01:09;98770.05;;;18.22;34.29
63708;BME280;67643;-34.198;22.084;2023-06-14T01:03:38;98778.77;;;18.37;34.12
63708;BME280;67643;-34.198;22.084;2023-06-14T01:06:15;98781.81;;;18.35;33.99
63708;BME280;67643;-34.198;22.084;2023-06-14T01:08:50;98773.96;;;18.04;34.18
63708;BME280;67643;-34.198;22.084;2023-06-14T01:11:24;98775.02;;;18.19;34.05
63708;BME280;67643;-34.198;22.084;2023-06-14T01:13:56;98789.03;;;18.15;33.98
63708;BME280;67643;-34.198;22.084;2023-06-14T01:16:26;98790.30;;;18.17;34.16
63708;BME280;67643;-34.198;22.084;2023-06-14T01:18:56;98806.08;;;18.38;33.97
63708;BME280;67643;-34.198;22.084;2023-06-14T01:21:25;98808.88;;;18.28;34.13
63708;BME280;67643;-34.198;22.084;2023-06-14T01:23:54;98798.63;;;18.40;33.85
63708;BME280;67643;-34.198;22.084;2023-06-14T01:26:22;98798.36;;;18.09;34.51
63708;BME280;67643;-34.198;22.084;2023-06-14T01:28:51;98791.96;;;18.30;34.24
63708;BME280;67643;-34.198;22.084;2023-06-14T01:31:22;98785.02;;;17.95;34.48
63708;BME280;67643;-34.198;22.084;2023-06-14T01:33:51;98773.84;;;17.89;34.16
63708;BME280;67643;-34.198;22.084;2023-06-14T01:36:21;98782.75;;;17.97;34.10
63708;BME280;67643;-34.198;22.084;2023-06-14T01:38:50;98783.88;;;17.96;34.10
63708;BME280;67643;-34.198;22.084;2023-06-14T01:41:21;98785.84;;;18.40;34.17
63708;BME280;67643;-34.198;22.084;2023-06-14T01:43:51;98775.53;;;18.18;34.75
63708;BME280;67643;-34.198;22.084;2023-06-14T01:46:20;98786.83;;;17.70;34.65
63708;BME280;67643;-34.198;22.084;2023-06-14T01:48:49;98795.03;;;18.02;34.42
63708;BME280;67643;-34.198;22.084;2023-06-14T01:51:17;98803.36;;;18.29;34.87
63708;BME280;67643;-34.198;22.084;2023-06-14T01:53:46;98794.51;;;18.10;34.68
63708;BME280;67643;-34.198;22.084;2023-06-14T01:56:14;98802.74;;;17.80;34.55
63708;BME280;67643;-34.198;22.084;2023-06-14T01:58:43;98820.96;;;18.49;34.36
63708;BME280;67643;-34.198;22.084;2023-06-14T02:01:11;98831.20;;;18.44;34.25
63708;BME280;67643;-34.198;22.084;2023-06-14T02:03:40;98851.07;;;17.57;34.80
63708;BME280;67643;-34.198;22.084;2023-06-14T02:06:09;98844.95;;;18.02;34.74
63708;BME280;67643;-34.198;22.084;2023-06-14T02:08:37;98851.63;;;18.21;34.97
63708;BME280;67643;-34.198;22.084;2023-06-14T02:11:06;98864.29;;;18.29;34.57
63708;BME280;67643;-34.198;22.084;2023-06-14T02:13:34;98854.89;;;17.87;34.49
63708;BME280;67643;-34.198;22.084;2023-06-14T02:16:03;98870.09;;;17.73;34.77
63708;BME280;67643;-34.198;22.084;2023-06-14T02:18:31;98869.24;;;18.40;34.55
63708;BME280;67643;-34.198;22.084;2023-06-14T02:21:00;98869.86;;;18.15;34.91
63708;BME280;67643;-34.198;22.084;2023-06-14T02:23:28;98884.62;;;17.73;34.95
63708;BME280;67643;-34.198;22.084;2023-06-14T02:25:57;98888.52;;;18.03;34.46
63708;BME280;67643;-34.198;22.084;2023-06-14T02:28:25;98895.65;;;18.25;35.06
63708;BME280;67643;-34.198;22.084;2023-06-14T02:30:54;98899.73;;;17.72;35.21
63708;BME280;67643;-34.198;22.084;2023-06-14T02:33:23;98912.31;;;18.57;34.63
63708;BME280;67643;-34.198;22.084;2023-06-14T02:35:51;98926.51;;;18.28;35.09
63708;BME280;67643;-34.198;22.084;2023-06-14T02:38:20;98938.25;;;18.21;35.33
63708;BME280;67643;-34.198;22.084;2023-06-14T02:40:48;98952.51;;;18.30;35.76
63708;BME280;67643;-34.198;22.084;2023-06-14T02:43:18;98968.02;;;18.21;36.93
63708;BME280;67643;-34.198;22.084;2023-06-14T02:45:46;98978.20;;;18.42;38.11
63708;BME280;67643;-34.198;22.084;2023-06-14T02:48:15;98990.33;;;18.00;39.26
63708;BME280;67643;-34.198;22.084;2023-06-14T02:50:43;98994.34;;;18.11;39.13
63708;BME280;67643;-34.198;22.084;2023-06-14T02:53:12;98974.97;;;17.71;39.32
63708;BME280;67643;-34.198;22.084;2023-06-14T02:55:40;98976.63;;;17.57;39.83
63708;BME280;67643;-34.198;22.084;2023-06-14T02:58:09;98984.90;;;17.43;39.50
63708;BME280;67643;-34.198;22.084;2023-06-14T03:00:38;98991.27;;;17.86;40.26
63708;BME280;67643;-34.198;22.084;2023-06-14T03:03:06;98990.47;;;17.41;39.69
63708;BME280;67643;-34.198;22.084;2023-06-14T03:05:35;99000.60;;;17.40;39.75
63708;BME280;67643;-34.198;22.084;2023-06-14T03:08:03;99001.71;;;17.19;39.85
63708;BME280;67643;-34.198;22.084;2023-06-14T03:10:32;99006.60;;;17.47;40.52
63708;BME280;67643;-34.198;22.084;2023-06-14T03:13:00;99008.94;;;17.70;40.38
63708;BME280;67643;-34.198;22.084;2023-06-14T03:15:29;99014.68;;;17.38;39.73
63708;BME280;67643;-34.198;22.084;2023-06-14T03:17:58;99020.90;;;17.08;39.61
63708;BME280;67643;-34.198;22.084;2023-06-14T03:20:26;99026.81;;;17.19;39.21
63708;BME280;67643;-34.198;22.084;2023-06-14T03:22:55;99028.21;;;17.68;39.79
63708;BME280;67643;-34.198;22.084;2023-06-14T03:25:23;99026.56;;;17.74;40.55
63708;BME280;67643;-34.198;22.084;2023-06-14T03:27:52;99023.05;;;17.58;39.91
63708;BME280;67643;-34.198;22.084;2023-06-14T03:30:20;99015.29;;;17.91;40.18
63708;BME280;67643;-34.198;22.084;2023-06-14T03:32:49;99020.70;;;17.85;40.59
63708;BME280;67643;-34.198;22.084;2023-06-14T03:35:17;99030.78;;;17.57;39.80
63708;BME280;67643;-34.198;22.084;2023-06-14T03:37:46;99040.28;;;17.38;39.59
63708;BME280;67643;-34.198;22.084;2023-06-14T03:40:17;99036.01;;;17.70;39.82
63708;BME280;67643;-34.198;22.084;2023-06-14T03:42:45;99052.46;;;17.88;39.46
63708;BME280;67643;-34.198;22.084;2023-06-14T03:45:14;99068.10;;;17.44;39.56
63708;BME280;67643;-34.198;22.084;2023-06-14T03:47:43;99071.56;;;18.02;39.64
63708;BME280;67643;-34.198;22.084;2023-06-14T03:50:11;99081.82;;;17.48;39.74
63708;BME280;67643;-34.198;22.084;2023-06-14T03:52:40;99062.77;;;17.49;39.90
63708;BME280;67643;-34.198;22.084;2023-06-14T03:55:09;99059.14;;;17.94;40.17
63708;BME280;67643;-34.198;22.084;2023-06-14T03:57:38;99084.04;;;17.48;40.24
63708;BME280;67643;-34.198;22.084;2023-06-14T04:00:08;99076.48;;;17.41;40.62
63708;BME280;67643;-34.198;22.084;2023-06-14T04:02:36;99089.15;;;17.41;40.72
63708;BME280;67643;-34.198;22.084;2023-06-14T04:05:05;99086.16;;;17.62;40.68
63708;BME280;67643;-34.198;22.084;2023-06-14T04:07:34;99102.34;;;17.57;40.91
63708;BME280;67643;-34.198;22.084;2023-06-14T04:10:03;99096.97;;;17.54;41.64
63708;BME280;67643;-34.198;22.084;2023-06-14T04:12:31;99091.03;;;17.90;41.82
63708;BME280;67643;-34.198;22.084;2023-06-14T04:14:59;99076.54;;;17.54;41.73
63708;BME280;67643;-34.198;22.084;2023-06-14T04:17:28;99070.20;;;17.38;42.22
63708;BME280;67643;-34.198;22.084;2023-06-14T04:19:56;99090.76;;;17.56;42.43
63708;BME280;67643;-34.198;22.084;2023-06-14T04:22:25;99103.51;;;17.37;42.38
63708;BME280;67643;-34.198;22.084;2023-06-14T04:24:54;99107.02;;;17.51;42.91
63708;BME280;67643;-34.198;22.084;2023-06-14T04:27:22;99095.58;;;17.87;42.79
63708;BME280;67643;-34.198;22.084;2023-06-14T04:29:51;99120.55;;;17.67;42.64
63708;BME280;67643;-34.198;22.084;2023-06-14T04:32:19;99139.02;;;17.43;43.48
63708;BME280;67643;-34.198;22.084;2023-06-14T04:34:48;99147.97;;;17.21;43.51
63708;BME280;67643;-34.198;22.084;2023-06-14T04:37:17;99147.33;;;17.67;43.60
63708;BME280;67643;-34.198;22.084;2023-06-14T04:39:45;99147.87;;;17.19;43.92
63708;BME280;67643;-34.198;22.084;2023-06-14T04:42:14;99157.73;;;17.18;43.73
63708;BME280;67643;-34.198;22.084;2023-06-14T04:44:42;99177.61;;;17.44;43.82
63708;BME280;67643;-34.198;22.084;2023-06-14T04:47:10;99186.03;;;17.57;43.78
63708;BME280;67643;-34.198;22.084;2023-06-14T04:49:39;99188.03;;;17.30;43.73
63708;BME280;67643;-34.198;22.084;2023-06-14T04:52:08;99188.73;;;17.39;43.90
63708;BME280;67643;-34.198;22.084;2023-06-14T04:54:36;99189.08;;;17.42;44.05
63708;BME280;67643;-34.198;22.084;2023-06-14T04:57:06;99200.15;;;17.67;43.80
63708;BME280;67643;-34.198;22.084;2023-06-14T04:59:34;99193.73;;;17.85;44.18
63708;BME280;67643;-34.198;22.084;2023-06-14T05:02:03;99204.76;;;17.46;44.58
63708;BME280;67643;-34.198;22.084;2023-06-14T05:04:31;99206.74;;;17.45;44.63
63708;BME280;67643;-34.198;22.084;2023-06-14T05:07:00;99211.21;;;17.51;44.41
63708;BME280;67643;-34.198;22.084;2023-06-14T05:09:28;99213.98;;;17.65;44.18
63708;BME280;67643;-34.198;22.084;2023-06-14T05:11:57;99215.51;;;17.49;44.48
63708;BME280;67643;-34.198;22.084;2023-06-14T05:14:25;99230.39;;;17.45;44.52
63708;BME280;67643;-34.198;22.084;2023-06-14T05:16:54;99235.66;;;17.45;44.53
63708;BME280;67643;-34.198;22.084;2023-06-14T05:19:22;99234.23;;;17.80;44.72
63708;BME280;67643;-34.198;22.084;2023-06-14T05:21:51;99225.14;;;17.22;44.89
63708;BME280;67643;-34.198;22.084;2023-06-14T05:24:19;99235.39;;;17.68;45.15
63708;BME280;67643;-34.198;22.084;2023-06-14T05:26:47;99239.27;;;17.41;45.48
63708;BME280;67643;-34.198;22.084;2023-06-14T05:29:16;99240.90;;;17.72;45.15
63708;BME280;67643;-34.198;22.084;2023-06-14T05:31:45;99244.85;;;17.36;45.69
63708;BME280;67643;-34.198;22.084;2023-06-14T05:34:13;99243.86;;;17.33;45.97
63708;BME280;67643;-34.198;22.084;2023-06-14T05:36:42;99236.60;;;17.18;46.19
63708;BME280;67643;-34.198;22.084;2023-06-14T05:39:10;99248.77;;;17.23;46.06
63708;BME280;67643;-34.198;22.084;2023-06-14T05:41:39;99245.07;;;17.45;46.17
63708;BME280;67643;-34.198;22.084;2023-06-14T05:44:07;99240.70;;;17.26;45.79
63708;BME280;67643;-34.198;22.084;2023-06-14T05:46:36;99238.50;;;17.41;45.79
63708;BME280;67643;-34.198;22.084;2023-06-14T05:49:04;99232.62;;;17.29;45.84
63708;BME280;67643;-34.198;22.084;2023-06-14T05:51:33;99242.75;;;17.11;45.76
63708;BME280;67643;-34.198;22.084;2023-06-14T05:54:02;99232.95;;;17.33;45.80
63708;BME280;67643;-34.198;22.084;2023-06-14T05:56:31;99236.12;;;17.14;45.67
63708;BME280;67643;-34.198;22.084;2023-06-14T05:59:00;99239.22;;;17.21;45.48
63708;BME280;67643;-34.198;22.084;2023-06-14T06:01:28;99260.66;;;17.53;45.37
63708;BME280;67643;-34.198;22.084;2023-06-14T06:03:56;99281.18;;;17.00;45.43
63708;BME280;67643;-34.198;22.084;2023-06-14T06:06:25;99283.54;;;17.50;45.35
63708;BME280;67643;-34.198;22.084;2023-06-14T06:08:53;99277.40;;;17.01;45.32
63708;BME280;67643;-34.198;22.084;2023-06-14T06:11:22;99281.15;;;17.07;45.26
63708;BME280;67643;-34.198;22.084;2023-06-14T06:13:50;99284.97;;;17.38;45.27
63708;BME280;67643;-34.198;22.084;2023-06-14T06:16:19;99302.92;;;17.37;45.44
63708;BME280;67643;-34.198;22.084;2023-06-14T06:18:47;99311.09;;;17.04;45.61
63708;BME280;67643;-34.198;22.084;2023-06-14T06:21:16;99312.90;;;17.62;45.52
63708;BME280;67643;-34.198;22.084;2023-06-14T06:23:44;99321.59;;;17.62;45.61
63708;BME280;67643;-34.198;22.084;2023-06-14T06:26:12;99320.87;;;17.35;45.71
63708;BME280;67643;-34.198;22.084;2023-06-14T06:28:41;99312.31;;;17.32;45.82
63708;BME280;67643;-34.198;22.084;2023-06-14T06:31:09;99308.16;;;17.51;45.94
63708;BME280;67643;-34.198;22.084;2023-06-14T06:33:37;99317.35;;;17.53;45.89
63708;BME280;67643;-34.198;22.084;2023-06-14T06:36:06;99331.12;;;17.50;45.88
63708;BME280;67643;-34.198;22.084;2023-06-14T06:38:34;99356.46;;;17.53;45.81
63708;BME280;67643;-34.198;22.084;2023-06-14T06:41:03;99363.86;;;17.55;45.66
63708;BME280;67643;-34.198;22.084;2023-06-14T06:43:31;99355.63;;;17.56;45.55
63708;BME280;67643;-34.198;22.084;2023-06-14T06:46:00;99345.76;;;17.30;45.44
63708;BME280;67643;-34.198;22.084;2023-06-14T06:48:28;99352.29;;;16.96;45.41
63708;BME280;67643;-34.198;22.084;2023-06-14T06:50:56;99374.86;;;17.63;44.71
63708;BME280;67643;-34.198;22.084;2023-06-14T06:53:25;99349.11;;;17.40;45.37
63708;BME280;67643;-34.198;22.084;2023-06-14T06:55:53;99353.14;;;17.33;44.98
63708;BME280;67643;-34.198;22.084;2023-06-14T06:58:21;99368.39;;;17.47;45.25
63708;BME280;67643;-34.198;22.084;2023-06-14T07:00:51;99340.99;;;17.63;44.82
63708;BME280;67643;-34.198;22.084;2023-06-14T07:03:20;99358.34;;;17.37;44.82
63708;BME280;67643;-34.198;22.084;2023-06-14T07:05:48;99366.89;;;17.36;45.46
63708;BME280;67643;-34.198;22.084;2023-06-14T07:08:16;99360.98;;;17.37;45.61
63708;BME280;67643;-34.198;22.084;2023-06-14T07:10:45;99373.96;;;17.49;45.49
63708;BME280;67643;-34.198;22.084;2023-06-14T07:13:13;99370.52;;;17.59;45.51
63708;BME280;67643;-34.198;22.084;2023-06-14T07:15:41;99384.53;;;17.35;45.87
63708;BME280;67643;-34.198;22.084;2023-06-14T07:18:10;99387.74;;;17.17;45.88
63708;BME280;67643;-34.198;22.084;2023-06-14T07:20:38;99392.97;;;17.18;46.07
63708;BME280;67643;-34.198;22.084;2023-06-14T07:23:07;99403.50;;;17.06;45.66
63708;BME280;67643;-34.198;22.084;2023-06-14T07:25:35;99393.82;;;16.98;45.76
63708;BME280;67643;-34.198;22.084;2023-06-14T07:28:04;99392.83;;;17.61;45.82
63708;BME280;67643;-34.198;22.084;2023-06-14T07:30:33;99392.12;;;17.16;45.92
63708;BME280;67643;-34.198;22.084;2023-06-14T07:33:01;99397.87;;;17.25;46.21
63708;BME280;67643;-34.198;22.084;2023-06-14T07:35:30;99400.16;;;17.60;46.00
63708;BME280;67643;-34.198;22.084;2023-06-14T07:37:58;99398.02;;;17.30;46.41
63708;BME280;67643;-34.198;22.084;2023-06-14T07:40:27;99406.64;;;17.17;46.25
63708;BME280;67643;-34.198;22.084;2023-06-14T07:42:55;99394.39;;;17.19;46.89
63708;BME280;67643;-34.198;22.084;2023-06-14T07:45:23;99415.72;;;17.45;46.88
63708;BME280;67643;-34.198;22.084;2023-06-14T07:47:52;99423.60;;;17.38;46.96
63708;BME280;67643;-34.198;22.084;2023-06-14T07:50:20;99424.47;;;17.61;46.09
63708;BME280;67643;-34.198;22.084;2023-06-14T07:52:48;99427.20;;;17.51;46.12
63708;BME280;67643;-34.198;22.084;2023-06-14T07:55:16;99406.77;;;17.29;45.88
63708;BME280;67643;-34.198;22.084;2023-06-14T07:57:45;99422.17;;;17.41;46.33
63708;BME280;67643;-34.198;22.084;2023-06-14T08:00:14;99419.49;;;16.73;46.53
63708;BME280;67643;-34.198;22.084;2023-06-14T08:02:44;99410.10;;;17.10;46.37
63708;BME280;67643;-34.198;22.084;2023-06-14T08:05:14;99433.38;;;16.96;45.92
63708;BME280;67643;-34.198;22.084;2023-06-14T08:07:42;99427.16;;;17.33;45.70
63708;BME280;67643;-34.198;22.084;2023-06-14T08:10:11;99441.15;;;17.24;46.39
63708;BME280;67643;-34.198;22.084;2023-06-14T08:12:39;99426.86;;;17.06;46.04
63708;BME280;67643;-34.198;22.084;2023-06-14T08:15:08;99449.15;;;17.13;46.18
63708;BME280;67643;-34.198;22.084;2023-06-14T08:17:37;99443.03;;;17.04;46.56
63708;BME280;67643;-34.198;22.084;2023-06-14T08:20:06;99439.92;;;16.88;47.00
63708;BME280;67643;-34.198;22.084;2023-06-14T08:22:35;99436.81;;;16.97;47.39
63708;BME280;67643;-34.198;22.084;2023-06-14T08:25:05;99448.07;;;17.04;46.96
63708;BME280;67643;-34.198;22.084;2023-06-14T08:27:33;99469.40;;;17.13;47.25
63708;BME280;67643;-34.198;22.084;2023-06-14T08:30:02;99477.22;;;17.08;47.48
63708;BME280;67643;-34.198;22.084;2023-06-14T08:32:30;99473.83;;;17.06;47.34
63708;BME280;67643;-34.198;22.084;2023-06-14T08:34:59;99487.21;;;16.82;47.52
63708;BME280;67643;-34.198;22.084;2023-06-14T08:37:28;99483.08;;;16.94;47.80
63708;BME280;67643;-34.198;22.084;2023-06-14T08:39:56;99481.52;;;17.11;47.51
63708;BME280;67643;-34.198;22.084;2023-06-14T08:42:25;99469.66;;;16.90;47.57
63708;BME280;67643;-34.198;22.084;2023-06-14T08:44:53;99455.02;;;17.10;47.12
63708;BME280;67643;-34.198;22.084;2023-06-14T08:47:22;99475.21;;;17.21;46.68
63708;BME280;67643;-34.198;22.084;2023-06-14T08:49:52;99463.85;;;17.37;46.15
63708;BME280;67643;-34.198;22.084;2023-06-14T08:52:21;99458.16;;;17.51;45.74
63708;BME280;67643;-34.198;22.084;2023-06-14T08:54:50;99455.07;;;16.96;46.23
63708;BME280;67643;-34.198;22.084;2023-06-14T08:57:18;99462.94;;;17.14;46.27
63708;BME280;67643;-34.198;22.084;2023-06-14T08:59:47;99470.52;;;17.43;45.98
63708;BME280;67643;-34.198;22.084;2023-06-14T09:02:16;99489.62;;;17.19;45.75
63708;BME280;67643;-34.198;22.084;2023-06-14T09:04:45;99495.22;;;17.54;45.28
63708;BME280;67643;-34.198;22.084;2023-06-14T09:07:13;99478.71;;;17.03;45.80
63708;BME280;67643;-34.198;22.084;2023-06-14T09:09:42;99477.19;;;17.24;45.82
63708;BME280;67643;-34.198;22.084;2023-06-14T09:12:11;99490.66;;;17.05;45.68
63708;BME280;67643;-34.198;22.084;2023-06-14T09:14:39;99493.36;;;17.18;45.74
63708;BME280;67643;-34.198;22.084;2023-06-14T09:17:07;99500.77;;;16.85;46.11
63708;BME280;67643;-34.198;22.084;2023-06-14T09:19:35;99501.14;;;16.79;46.05
63708;BME280;67643;-34.198;22.084;2023-06-14T09:22:05;99501.58;;;17.20;45.78
63708;BME280;67643;-34.198;22.084;2023-06-14T09:24:33;99507.09;;;17.14;45.92
63708;BME280;67643;-34.198;22.084;2023-06-14T09:27:04;99503.23;;;17.19;45.90
63708;BME280;67643;-34.198;22.084;2023-06-14T09:29:32;99481.52;;;16.89;45.73
63708;BME280;67643;-34.198;22.084;2023-06-14T09:32:01;99501.51;;;16.94;45.28
63708;BME280;67643;-34.198;22.084;2023-06-14T09:34:29;99474.56;;;16.55;44.96
63708;BME280;67643;-34.198;22.084;2023-06-14T09:36:58;99487.23;;;16.82;44.32
63708;BME280;67643;-34.198;22.084;2023-06-14T09:39:27;99517.96;;;17.13;44.95
63708;BME280;67643;-34.198;22.084;2023-06-14T09:41:55;99488.77;;;16.83;44.51
63708;BME280;67643;-34.198;22.084;2023-06-14T09:44:25;99514.19;;;16.78;44.30
63708;BME280;67643;-34.198;22.084;2023-06-14T09:46:56;99503.90;;;16.78;44.42
63708;BME280;67643;-34.198;22.084;2023-06-14T09:49:25;99510.30;;;16.95;44.37
63708;BME280;67643;-34.198;22.084;2023-06-14T09:51:53;99529.91;;;16.72;44.60
63708;BME280;67643;-34.198;22.084;2023-06-14T09:54:25;99519.11;;;16.90;44.20
63708;BME280;67643;-34.198;22.084;2023-06-14T09:56:55;99519.59;;;16.86;44.54
63708;BME280;67643;-34.198;22.084;2023-06-14T09:59:27;99519.95;;;16.70;45.02
63708;BME280;67643;-34.198;22.084;2023-06-14T10:02:02;99509.36;;;17.10;44.29
63708;BME280;67643;-34.198;22.084;2023-06-14T10:04:35;99503.31;;;16.75;44.34
63708;BME280;67643;-34.198;22.084;2023-06-14T10:07:05;99497.31;;;16.99;43.68
63708;BME280;67643;-34.198;22.084;2023-06-14T10:09:34;99500.70;;;16.96;44.40
63708;BME280;67643;-34.198;22.084;2023-06-14T10:12:04;99494.09;;;16.96;44.35
63708;BME280;67643;-34.198;22.084;2023-06-14T10:14:32;99486.39;;;16.92;44.56
63708;BME280;67643;-34.198;22.084;2023-06-14T10:17:05;99486.10;;;17.14;43.56
63708;BME280;67643;-34.198;22.084;2023-06-14T10:19:40;99491.03;;;17.02;43.90
63708;BME280;67643;-34.198;22.084;2023-06-14T10:22:14;99486.96;;;17.02;44.49
63708;BME280;67643;-34.198;22.084;2023-06-14T10:24:46;99475.88;;;16.85;44.16
63708;BME280;67643;-34.198;22.084;2023-06-14T10:27:15;99478.48;;;17.19;44.36
63708;BME280;67643;-34.198;22.084;2023-06-14T10:30:05;99466.81;;;17.18;44.23
63708;BME280;67643;-34.198;22.084;2023-06-14T10:32:35;99457.41;;;17.04;44.85
63708;BME280;67643;-34.198;22.084;2023-06-14T10:35:06;99456.54;;;17.21;45.69
63708;BME280;67643;-34.198;22.084;2023-06-14T10:37:35;99453.95;;;17.22;44.54
63708;BME280;67643;-34.198;22.084;2023-06-14T10:40:04;99445.69;;;16.96;43.59
63708;BME280;67643;-34.198;22.084;2023-06-14T10:42:35;99453.78;;;17.34;44.25
63708;BME280;67643;-34.198;22.084;2023-06-14T10:45:04;99473.53;;;17.19;44.15
63708;BME280;67643;-34.198;22.084;2023-06-14T10:47:33;99451.01;;;17.11;44.09
63708;BME280;67643;-34.198;22.084;2023-06-14T10:50:06;99461.94;;;17.04;44.23
63708;BME280;67643;-34.198;22.084;2023-06-14T10:52:37;99463.92;;;17.09;44.30
63708;BME280;67643;-34.198;22.084;2023-06-14T10:55:10;99446.68;;;17.00;43.87
63708;BME280;67643;-34.198;22.084;2023-06-14T10:57:40;99453.09;;;17.22;44.00
63708;BME280;67643;-34.198;22.084;2023-06-14T11:00:11;99447.47;;;17.21;43.45
63708;BME280;67643;-34.198;22.084;2023-06-14T11:03:12;99435.39;;;17.30;43.90
63708;BME280;67643;-34.198;22.084;2023-06-14T11:05:50;99441.75;;;17.27;43.20
63708;BME280;67643;-34.198;22.084;2023-06-14T11:08:38;99442.08;;;17.00;42.98
63708;BME280;67643;-34.198;22.084;2023-06-14T11:11:09;99437.89;;;16.96;43.13
63708;BME280;67643;-34.198;22.084;2023-06-14T11:13:39;99436.86;;;17.00;42.91
63708;BME280;67643;-34.198;22.084;2023-06-14T11:16:12;99429.30;;;17.12;44.05
63708;BME280;67643;-34.198;22.084;2023-06-14T11:18:41;99426.59;;;17.03;43.50
63708;BME280;67643;-34.198;22.084;2023-06-14T11:21:09;99425.11;;;16.74;43.40
63708;BME280;67643;-34.198;22.084;2023-06-14T11:23:38;99440.76;;;16.79;43.58
63708;BME280;67643;-34.198;22.084;2023-06-14T11:26:07;99433.52;;;16.71;44.21
63708;BME280;67643;-34.198;22.084;2023-06-14T11:28:40;99434.51;;;16.84;43.89
63708;BME280;67643;-34.198;22.084;2023-06-14T11:31:10;99421.88;;;17.08;43.72
63708;BME280;67643;-34.198;22.084;2023-06-14T11:33:38;99410.86;;;17.22;44.16
63708;BME280;67643;-34.198;22.084;2023-06-14T11:36:07;99416.62;;;17.03;43.55
63708;BME280;67643;-34.198;22.084;2023-06-14T11:38:37;99412.33;;;17.22;43.77
63708;BME280;67643;-34.198;22.084;2023-06-14T11:41:05;99419.93;;;17.12;43.96
63708;BME280;67643;-34.198;22.084;2023-06-14T11:43:33;99416.30;;;17.20;43.53
63708;BME280;67643;-34.198;22.084;2023-06-14T11:46:02;99411.21;;;17.31;42.92
63708;BME280;67643;-34.198;22.084;2023-06-14T11:48:42;99419.24;;;17.15;43.13
63708;BME280;67643;-34.198;22.084;2023-06-14T11:51:11;99416.42;;;17.41;43.85
63708;BME280;67643;-34.198;22.084;2023-06-14T11:53:39;99414.89;;;17.23;43.07
63708;BME280;67643;-34.198;22.084;2023-06-14T11:56:08;99417.66;;;17.48;41.59
63708;BME280;67643;-34.198;22.084;2023-06-14T11:58:37;99418.04;;;17.46;43.11
63708;BME280;67643;-34.198;22.084;2023-06-14T12:01:06;99424.78;;;16.98;42.86
63708;BME280;67643;-34.198;22.084;2023-06-14T12:03:34;99425.75;;;17.15;43.31
63708;BME280;67643;-34.198;22.084;2023-06-14T12:06:05;99435.29;;;17.37;43.49
63708;BME280;67643;-34.198;22.084;2023-06-14T12:08:36;99435.62;;;17.35;43.25
63708;BME280;67643;-34.198;22.084;2023-06-14T12:11:05;99435.99;;;17.31;42.51
63708;BME280;67643;-34.198;22.084;2023-06-14T12:13:37;99431.85;;;17.18;43.27
63708;BME280;67643;-34.198;22.084;2023-06-14T12:16:07;99428.29;;;17.31;42.39
63708;BME280;67643;-34.198;22.084;2023-06-14T12:18:38;99432.94;;;17.68;43.15
63708;BME280;67643;-34.198;22.084;2023-06-14T12:21:07;99435.70;;;17.34;43.03
63708;BME280;67643;-34.198;22.084;2023-06-14T12:23:43;99436.31;;;17.65;42.66
63708;BME280;67643;-34.198;22.084;2023-06-14T12:26:14;99448.77;;;17.41;42.55
63708;BME280;67643;-34.198;22.084;2023-06-14T12:28:44;99439.91;;;17.12;43.26
63708;BME280;67643;-34.198;22.084;2023-06-14T12:31:15;99436.42;;;17.52;43.39
63708;BME280;67643;-34.198;22.084;2023-06-14T12:33:44;99446.58;;;17.13;43.52
63708;BME280;67643;-34.198;22.084;2023-06-14T12:36:12;99455.91;;;17.43;43.37
63708;BME280;67643;-34.198;22.084;2023-06-14T12:38:41;99450.82;;;17.46;42.83
63708;BME280;67643;-34.198;22.084;2023-06-14T12:41:09;99450.74;;;17.60;43.30
63708;BME280;67643;-34.198;22.084;2023-06-14T12:43:38;99452.23;;;17.38;42.77
63708;BME280;67643;-34.198;22.084;2023-06-14T12:46:06;99450.38;;;17.51;42.42
63708;BME280;67643;-34.198;22.084;2023-06-14T12:48:34;99444.94;;;17.40;42.38
63708;BME280;67643;-34.198;22.084;2023-06-14T12:51:03;99448.70;;;17.61;43.04